sensor_id;sensor_type;location;lat;lon;timestamp;P1;durP1;ratioP1;P2;durP2;ratioP2
75044;SDS011;63614;56.026;35.960;2023-12-22T00:00:31;8.38;;;5.20;;
75044;SDS011;63614;56.026;35.960;2023-12-22T00:02:57;10.40;;;5.70;;
75044;SDS011;63614;56.026;35.960;2023-12-22T00:05:24;9.77;;;5.95;;
75044;SDS011;63614;56.026;35.960;2023-12-22T00:07:51;8.25;;;4.93;;
75044;SDS011;63614;56.026;35.960;2023-12-22T00:10:17;7.60;;;4.97;;
75044;SDS011;63614;56.026;35.960;2023-12-22T00:12:44;10.45;;;6.03;;
75044;SDS011;63614;56.026;35.960;2023-12-22T00:15:09;8.95;;;5.40;;
75044;SDS011;63614;56.026;35.960;2023-12-22T00:17:36;9.60;;;5.57;;
75044;SDS011;63614;56.026;35.960;2023-12-22T00:20:02;10.95;;;5.95;;
75044;SDS011;63614;56.026;35.960;2023-12-22T00:22:30;9.35;;;5.57;;
75044;SDS011;63614;56.026;35.960;2023-12-22T00:24:56;9.43;;;5.30;;
75044;SDS011;63614;56.026;35.960;2023-12-22T00:27:23;8.43;;;5.57;;
75044;SDS011;63614;56.026;35.960;2023-12-22T00:29:49;8.68;;;5.80;;
75044;SDS011;63614;56.026;35.960;2023-12-22T00:32:15;7.43;;;4.50;;
75044;SDS011;63614;56.026;35.960;2023-12-22T00:34:41;10.38;;;5.65;;
75044;SDS011;63614;56.026;35.960;2023-12-22T00:37:07;7.97;;;5.22;;
75044;SDS011;63614;56.026;35.960;2023-12-22T00:39:33;7.95;;;5.32;;
75044;SDS011;63614;56.026;35.960;2023-12-22T00:41:59;10.02;;;5.85;;
75044;SDS011;63614;56.026;35.960;2023-12-22T00:44:24;7.85;;;4.95;;
75044;SDS011;63614;56.026;35.960;2023-12-22T00:46:52;10.57;;;4.68;;
75044;SDS011;63614;56.026;35.960;2023-12-22T00:49:18;8.75;;;4.30;;
75044;SDS011;63614;56.026;35.960;2023-12-22T00:51:45;10.90;;;5.38;;
75044;SDS011;63614;56.026;35.960;2023-12-22T00:54:11;9.50;;;5.63;;
75044;SDS011;63614;56.026;35.960;2023-12-22T00:56:38;10.10;;;5.50;;
75044;SDS011;63614;56.026;35.960;2023-12-22T00:59:04;9.52;;;5.40;;
75044;SDS011;63614;56.026;35.960;2023-12-22T01:01:30;9.73;;;5.22;;
75044;SDS011;63614;56.026;35.960;2023-12-22T01:03:56;8.60;;;5.25;;
75044;SDS011;63614;56.026;35.960;2023-12-22T01:06:22;11.52;;;5.63;;
75044;SDS011;63614;56.026;35.960;2023-12-22T01:08:48;7.68;;;5.25;;
75044;SDS011;63614;56.026;35.960;2023-12-22T01:11:18;11.17;;;5.83;;
75044;SDS011;63614;56.026;35.960;2023-12-22T01:13:44;7.75;;;5.30;;
75044;SDS011;63614;56.026;35.960;2023-12-22T01:16:10;10.60;;;6.32;;
75044;SDS011;63614;56.026;35.960;2023-12-22T01:18:36;10.30;;;5.80;;
75044;SDS011;63614;56.026;35.960;2023-12-22T01:21:02;10.00;;;5.85;;
75044;SDS011;63614;56.026;35.960;2023-12-22T01:23:28;9.95;;;5.93;;
75044;SDS011;63614;56.026;35.960;2023-12-22T01:25:54;10.00;;;5.53;;
75044;SDS011;63614;56.026;35.960;2023-12-22T01:28:20;11.15;;;6.40;;
75044;SDS011;63614;56.026;35.960;2023-12-22T01:30:46;12.93;;;6.03;;
75044;SDS011;63614;56.026;35.960;2023-12-22T01:33:13;10.48;;;6.32;;
75044;SDS011;63614;56.026;35.960;2023-12-22T01:35:38;13.18;;;5.70;;
75044;SDS011;63614;56.026;35.960;2023-12-22T01:38:04;9.82;;;6.15;;
75044;SDS011;63614;56.026;35.960;2023-12-22T01:40:30;12.48;;;6.40;;
75044;SDS011;63614;56.026;35.960;2023-12-22T01:42:56;11.55;;;6.40;;
75044;SDS011;63614;56.026;35.960;2023-12-22T01:45:22;13.23;;;6.50;;
75044;SDS011;63614;56.026;35.960;2023-12-22T01:47:48;17.30;;;6.65;;
75044;SDS011;63614;56.026;35.960;2023-12-22T01:50:14;13.15;;;6.53;;
75044;SDS011;63614;56.026;35.960;2023-12-22T01:52:41;12.35;;;6.53;;
75044;SDS011;63614;56.026;35.960;2023-12-22T01:55:09;13.50;;;6.30;;
75044;SDS011;63614;56.026;35.960;2023-12-22T01:57:37;8.70;;;5.90;;
75044;SDS011;63614;56.026;35.960;2023-12-22T02:00:04;9.90;;;6.00;;
75044;SDS011;63614;56.026;35.960;2023-12-22T02:02:38;11.15;;;6.63;;
75044;SDS011;63614;56.026;35.960;2023-12-22T02:05:04;13.50;;;6.15;;
75044;SDS011;63614;56.026;35.960;2023-12-22T02:07:34;11.30;;;6.03;;
75044;SDS011;63614;56.026;35.960;2023-12-22T02:10:00;14.73;;;6.38;;
75044;SDS011;63614;56.026;35.960;2023-12-22T02:12:29;10.57;;;6.22;;
75044;SDS011;63614;56.026;35.960;2023-12-22T02:14:55;12.77;;;6.60;;
75044;SDS011;63614;56.026;35.960;2023-12-22T02:17:24;11.00;;;5.82;;
75044;SDS011;63614;56.026;35.960;2023-12-22T02:19:58;12.27;;;6.43;;
75044;SDS011;63614;56.026;35.960;2023-12-22T02:22:24;12.23;;;5.88;;
75044;SDS011;63614;56.026;35.960;2023-12-22T02:24:50;10.70;;;6.60;;
75044;SDS011;63614;56.026;35.960;2023-12-22T02:30:08;13.68;;;6.30;;
75044;SDS011;63614;56.026;35.960;2023-12-22T02:32:43;11.68;;;5.60;;
75044;SDS011;63614;56.026;35.960;2023-12-22T02:35:19;8.82;;;5.40;;
75044;SDS011;63614;56.026;35.960;2023-12-22T02:37:48;11.23;;;6.00;;
75044;SDS011;63614;56.026;35.960;2023-12-22T02:40:15;10.13;;;6.25;;
75044;SDS011;63614;56.026;35.960;2023-12-22T02:42:43;10.32;;;5.75;;
75044;SDS011;63614;56.026;35.960;2023-12-22T02:45:13;8.90;;;5.97;;
75044;SDS011;63614;56.026;35.960;2023-12-22T02:47:40;9.07;;;6.13;;
75044;SDS011;63614;56.026;35.960;2023-12-22T02:50:07;8.90;;;5.97;;
75044;SDS011;63614;56.026;35.960;2023-12-22T02:52:33;10.18;;;6.07;;
75044;SDS011;63614;56.026;35.960;2023-12-22T02:54:59;10.65;;;5.60;;
75044;SDS011;63614;56.026;35.960;2023-12-22T02:57:25;11.63;;;6.25;;
75044;SDS011;63614;56.026;35.960;2023-12-22T02:59:51;9.73;;;5.38;;
75044;SDS011;63614;56.026;35.960;2023-12-22T03:02:17;10.73;;;5.63;;
75044;SDS011;63614;56.026;35.960;2023-12-22T03:04:43;17.85;;;10.23;;
75044;SDS011;63614;56.026;35.960;2023-12-22T03:07:09;9.18;;;5.90;;
75044;SDS011;63614;56.026;35.960;2023-12-22T03:09:34;10.80;;;6.45;;
75044;SDS011;63614;56.026;35.960;2023-12-22T03:12:00;9.63;;;5.88;;
75044;SDS011;63614;56.026;35.960;2023-12-22T03:14:30;10.73;;;5.75;;
75044;SDS011;63614;56.026;35.960;2023-12-22T03:17:01;10.88;;;5.93;;
75044;SDS011;63614;56.026;35.960;2023-12-22T03:19:28;9.48;;;5.75;;
75044;SDS011;63614;56.026;35.960;2023-12-22T03:21:55;9.82;;;6.13;;
75044;SDS011;63614;56.026;35.960;2023-12-22T03:24:22;12.10;;;5.63;;
75044;SDS011;63614;56.026;35.960;2023-12-22T03:26:48;10.80;;;5.88;;
75044;SDS011;63614;56.026;35.960;2023-12-22T03:29:15;9.63;;;5.70;;
75044;SDS011;63614;56.026;35.960;2023-12-22T03:31:41;8.55;;;5.50;;
75044;SDS011;63614;56.026;35.960;2023-12-22T03:34:07;8.50;;;5.53;;
75044;SDS011;63614;56.026;35.960;2023-12-22T03:36:33;12.00;;;6.30;;
75044;SDS011;63614;56.026;35.960;2023-12-22T03:38:59;11.30;;;6.88;;
75044;SDS011;63614;56.026;35.960;2023-12-22T03:41:24;10.27;;;6.68;;
75044;SDS011;63614;56.026;35.960;2023-12-22T03:43:50;11.70;;;5.78;;
75044;SDS011;63614;56.026;35.960;2023-12-22T03:46:16;10.20;;;6.15;;
75044;SDS011;63614;56.026;35.960;2023-12-22T03:48:42;11.65;;;7.13;;
75044;SDS011;63614;56.026;35.960;2023-12-22T03:51:08;9.00;;;5.72;;
75044;SDS011;63614;56.026;35.960;2023-12-22T03:53:36;13.40;;;5.93;;
75044;SDS011;63614;56.026;35.960;2023-12-22T03:56:01;10.98;;;5.95;;
75044;SDS011;63614;56.026;35.960;2023-12-22T03:58:27;10.50;;;5.30;;
75044;SDS011;63614;56.026;35.960;2023-12-22T04:00:55;9.60;;;5.00;;
75044;SDS011;63614;56.026;35.960;2023-12-22T04:03:21;10.80;;;5.13;;
75044;SDS011;63614;56.026;35.960;2023-12-22T04:05:47;10.27;;;5.70;;
75044;SDS011;63614;56.026;35.960;2023-12-22T04:08:13;7.95;;;5.35;;
75044;SDS011;63614;56.026;35.960;2023-12-22T04:10:39;9.63;;;5.38;;
75044;SDS011;63614;56.026;35.960;2023-12-22T04:13:05;8.30;;;5.38;;
75044;SDS011;63614;56.026;35.960;2023-12-22T04:15:31;9.10;;;5.40;;
75044;SDS011;63614;56.026;35.960;2023-12-22T04:17:57;9.50;;;5.63;;
75044;SDS011;63614;56.026;35.960;2023-12-22T04:20:23;11.20;;;5.88;;
75044;SDS011;63614;56.026;35.960;2023-12-22T04:22:49;14.20;;;6.07;;
75044;SDS011;63614;56.026;35.960;2023-12-22T04:25:15;8.52;;;5.75;;
75044;SDS011;63614;56.026;35.960;2023-12-22T04:27:41;9.60;;;5.20;;
75044;SDS011;63614;56.026;35.960;2023-12-22T04:30:07;10.05;;;5.15;;
75044;SDS011;63614;56.026;35.960;2023-12-22T04:32:34;10.65;;;6.07;;
75044;SDS011;63614;56.026;35.960;2023-12-22T04:35:00;9.35;;;5.82;;
75044;SDS011;63614;56.026;35.960;2023-12-22T04:37:26;14.75;;;6.53;;
75044;SDS011;63614;56.026;35.960;2023-12-22T04:39:51;9.00;;;5.43;;
75044;SDS011;63614;56.026;35.960;2023-12-22T04:42:17;10.18;;;5.82;;
75044;SDS011;63614;56.026;35.960;2023-12-22T04:44:43;10.73;;;6.03;;
75044;SDS011;63614;56.026;35.960;2023-12-22T04:47:09;10.88;;;5.90;;
75044;SDS011;63614;56.026;35.960;2023-12-22T04:49:35;10.20;;;5.57;;
75044;SDS011;63614;56.026;35.960;2023-12-22T04:52:01;9.88;;;6.18;;
75044;SDS011;63614;56.026;35.960;2023-12-22T04:54:27;8.32;;;5.47;;
75044;SDS011;63614;56.026;35.960;2023-12-22T04:56:53;11.80;;;6.55;;
75044;SDS011;63614;56.026;35.960;2023-12-22T04:59:18;11.90;;;6.22;;
75044;SDS011;63614;56.026;35.960;2023-12-22T05:01:44;7.60;;;4.53;;
75044;SDS011;63614;56.026;35.960;2023-12-22T05:04:11;9.60;;;5.50;;
75044;SDS011;63614;56.026;35.960;2023-12-22T05:06:37;9.48;;;5.90;;
75044;SDS011;63614;56.026;35.960;2023-12-22T05:09:03;11.35;;;5.63;;
75044;SDS011;63614;56.026;35.960;2023-12-22T05:11:29;9.75;;;5.95;;
75044;SDS011;63614;56.026;35.960;2023-12-22T05:13:54;9.10;;;5.85;;
75044;SDS011;63614;56.026;35.960;2023-12-22T05:16:20;11.30;;;6.38;;
75044;SDS011;63614;56.026;35.960;2023-12-22T05:18:46;10.00;;;6.32;;
75044;SDS011;63614;56.026;35.960;2023-12-22T05:21:13;8.98;;;5.80;;
75044;SDS011;63614;56.026;35.960;2023-12-22T05:23:40;11.18;;;6.55;;
75044;SDS011;63614;56.026;35.960;2023-12-22T05:26:05;9.35;;;5.65;;
75044;SDS011;63614;56.026;35.960;2023-12-22T05:28:32;8.48;;;5.97;;
75044;SDS011;63614;56.026;35.960;2023-12-22T05:30:58;8.65;;;5.90;;
75044;SDS011;63614;56.026;35.960;2023-12-22T05:33:24;9.57;;;6.07;;
75044;SDS011;63614;56.026;35.960;2023-12-22T05:35:49;10.00;;;6.20;;
75044;SDS011;63614;56.026;35.960;2023-12-22T05:38:15;11.70;;;6.20;;
75044;SDS011;63614;56.026;35.960;2023-12-22T05:40:41;9.60;;;6.32;;
75044;SDS011;63614;56.026;35.960;2023-12-22T05:43:07;9.77;;;6.47;;
75044;SDS011;63614;56.026;35.960;2023-12-22T05:45:33;10.70;;;6.32;;
75044;SDS011;63614;56.026;35.960;2023-12-22T05:47:59;12.88;;;8.68;;
75044;SDS011;63614;56.026;35.960;2023-12-22T05:50:25;12.93;;;6.82;;
75044;SDS011;63614;56.026;35.960;2023-12-22T05:52:51;10.00;;;6.72;;
75044;SDS011;63614;56.026;35.960;2023-12-22T05:55:17;9.95;;;7.25;;
75044;SDS011;63614;56.026;35.960;2023-12-22T05:57:43;12.80;;;7.32;;
75044;SDS011;63614;56.026;35.960;2023-12-22T06:00:09;9.75;;;6.80;;
75044;SDS011;63614;56.026;35.960;2023-12-22T06:02:36;13.70;;;7.40;;
75044;SDS011;63614;56.026;35.960;2023-12-22T06:05:03;10.98;;;7.05;;
75044;SDS011;63614;56.026;35.960;2023-12-22T06:07:30;15.45;;;7.45;;
75044;SDS011;63614;56.026;35.960;2023-12-22T06:09:56;12.15;;;7.28;;
75044;SDS011;63614;56.026;35.960;2023-12-22T06:12:21;13.63;;;7.53;;
75044;SDS011;63614;56.026;35.960;2023-12-22T06:14:47;11.48;;;7.30;;
75044;SDS011;63614;56.026;35.960;2023-12-22T06:17:13;10.88;;;7.15;;
75044;SDS011;63614;56.026;35.960;2023-12-22T06:19:39;9.85;;;6.97;;
75044;SDS011;63614;56.026;35.960;2023-12-22T06:22:05;11.88;;;7.07;;
75044;SDS011;63614;56.026;35.960;2023-12-22T06:24:31;12.55;;;7.40;;
75044;SDS011;63614;56.026;35.960;2023-12-22T06:26:57;11.73;;;7.43;;
75044;SDS011;63614;56.026;35.960;2023-12-22T06:29:22;12.57;;;7.95;;
75044;SDS011;63614;56.026;35.960;2023-12-22T06:31:48;12.18;;;7.00;;
75044;SDS011;63614;56.026;35.960;2023-12-22T06:34:16;12.35;;;7.53;;
75044;SDS011;63614;56.026;35.960;2023-12-22T06:36:43;12.85;;;7.80;;
75044;SDS011;63614;56.026;35.960;2023-12-22T06:39:09;14.13;;;7.60;;
75044;SDS011;63614;56.026;35.960;2023-12-22T06:41:35;17.08;;;7.60;;
75044;SDS011;63614;56.026;35.960;2023-12-22T06:44:00;11.77;;;7.15;;
75044;SDS011;63614;56.026;35.960;2023-12-22T06:46:27;11.02;;;7.93;;
75044;SDS011;63614;56.026;35.960;2023-12-22T06:48:57;11.50;;;7.25;;
75044;SDS011;63614;56.026;35.960;2023-12-22T06:51:23;14.27;;;7.43;;
75044;SDS011;63614;56.026;35.960;2023-12-22T06:53:51;10.80;;;7.40;;
75044;SDS011;63614;56.026;35.960;2023-12-22T06:56:18;11.45;;;6.70;;
75044;SDS011;63614;56.026;35.960;2023-12-22T06:58:49;12.82;;;7.70;;
75044;SDS011;63614;56.026;35.960;2023-12-22T07:03:54;12.23;;;7.32;;
75044;SDS011;63614;56.026;35.960;2023-12-22T07:06:21;13.60;;;7.38;;
75044;SDS011;63614;56.026;35.960;2023-12-22T07:11:48;11.77;;;7.18;;
75044;SDS011;63614;56.026;35.960;2023-12-22T07:14:21;19.33;;;7.25;;
75044;SDS011;63614;56.026;35.960;2023-12-22T07:16:47;11.35;;;7.05;;
75044;SDS011;63614;56.026;35.960;2023-12-22T07:19:13;14.93;;;7.60;;
75044;SDS011;63614;56.026;35.960;2023-12-22T07:21:39;15.15;;;7.38;;
75044;SDS011;63614;56.026;35.960;2023-12-22T07:24:06;13.33;;;6.87;;
75044;SDS011;63614;56.026;35.960;2023-12-22T07:26:33;9.60;;;7.18;;
75044;SDS011;63614;56.026;35.960;2023-12-22T07:28:59;10.63;;;6.95;;
75044;SDS011;63614;56.026;35.960;2023-12-22T07:31:25;9.77;;;6.40;;
75044;SDS011;63614;56.026;35.960;2023-12-22T07:33:52;11.45;;;7.55;;
75044;SDS011;63614;56.026;35.960;2023-12-22T07:36:18;11.40;;;7.15;;
75044;SDS011;63614;56.026;35.960;2023-12-22T07:38:44;12.38;;;7.50;;
75044;SDS011;63614;56.026;35.960;2023-12-22T07:41:10;10.88;;;6.68;;
75044;SDS011;63614;56.026;35.960;2023-12-22T07:43:36;12.68;;;7.40;;
75044;SDS011;63614;56.026;35.960;2023-12-22T07:46:02;12.35;;;7.68;;
75044;SDS011;63614;56.026;35.960;2023-12-22T07:48:30;10.93;;;7.10;;
75044;SDS011;63614;56.026;35.960;2023-12-22T07:50:56;11.50;;;6.53;;
75044;SDS011;63614;56.026;35.960;2023-12-22T07:53:22;12.90;;;7.10;;
75044;SDS011;63614;56.026;35.960;2023-12-22T07:55:48;10.65;;;7.50;;
75044;SDS011;63614;56.026;35.960;2023-12-22T07:58:14;11.10;;;7.57;;
75044;SDS011;63614;56.026;35.960;2023-12-22T08:00:40;11.02;;;7.22;;
75044;SDS011;63614;56.026;35.960;2023-12-22T08:03:06;12.18;;;7.72;;
75044;SDS011;63614;56.026;35.960;2023-12-22T08:05:32;11.88;;;7.82;;
75044;SDS011;63614;56.026;35.960;2023-12-22T08:07:59;13.65;;;7.25;;
75044;SDS011;63614;56.026;35.960;2023-12-22T08:10:25;11.90;;;7.32;;
75044;SDS011;63614;56.026;35.960;2023-12-22T08:12:53;15.50;;;7.07;;
75044;SDS011;63614;56.026;35.960;2023-12-22T08:15:19;11.27;;;7.40;;
75044;SDS011;63614;56.026;35.960;2023-12-22T08:17:49;12.30;;;7.05;;
75044;SDS011;63614;56.026;35.960;2023-12-22T08:20:16;11.85;;;7.78;;
75044;SDS011;63614;56.026;35.960;2023-12-22T08:22:46;13.50;;;8.13;;
75044;SDS011;63614;56.026;35.960;2023-12-22T08:25:12;11.00;;;7.80;;
75044;SDS011;63614;56.026;35.960;2023-12-22T08:27:38;10.93;;;7.10;;
75044;SDS011;63614;56.026;35.960;2023-12-22T08:30:04;14.00;;;7.88;;
75044;SDS011;63614;56.026;35.960;2023-12-22T08:32:31;9.88;;;6.55;;
75044;SDS011;63614;56.026;35.960;2023-12-22T08:34:56;14.77;;;7.72;;
75044;SDS011;63614;56.026;35.960;2023-12-22T08:37:22;12.90;;;8.02;;
75044;SDS011;63614;56.026;35.960;2023-12-22T08:39:48;15.00;;;7.80;;
75044;SDS011;63614;56.026;35.960;2023-12-22T08:42:16;12.85;;;8.25;;
75044;SDS011;63614;56.026;35.960;2023-12-22T08:44:42;10.75;;;7.10;;
75044;SDS011;63614;56.026;35.960;2023-12-22T08:47:08;13.30;;;7.32;;
75044;SDS011;63614;56.026;35.960;2023-12-22T08:49:34;11.90;;;6.70;;
75044;SDS011;63614;56.026;35.960;2023-12-22T08:52:00;10.40;;;6.47;;
75044;SDS011;63614;56.026;35.960;2023-12-22T08:54:27;12.33;;;6.97;;
75044;SDS011;63614;56.026;35.960;2023-12-22T08:56:53;13.25;;;7.28;;
75044;SDS011;63614;56.026;35.960;2023-12-22T08:59:18;10.63;;;6.93;;
75044;SDS011;63614;56.026;35.960;2023-12-22T09:01:45;9.65;;;7.15;;
75044;SDS011;63614;56.026;35.960;2023-12-22T09:04:11;11.63;;;7.53;;
75044;SDS011;63614;56.026;35.960;2023-12-22T09:06:37;8.98;;;6.55;;
75044;SDS011;63614;56.026;35.960;2023-12-22T09:09:03;12.55;;;7.53;;
75044;SDS011;63614;56.026;35.960;2023-12-22T09:11:29;11.23;;;6.57;;
75044;SDS011;63614;56.026;35.960;2023-12-22T09:13:55;12.23;;;6.32;;
75044;SDS011;63614;56.026;35.960;2023-12-22T09:16:21;10.18;;;6.40;;
75044;SDS011;63614;56.026;35.960;2023-12-22T09:18:48;13.95;;;7.28;;
75044;SDS011;63614;56.026;35.960;2023-12-22T09:21:15;11.80;;;7.22;;
75044;SDS011;63614;56.026;35.960;2023-12-22T09:26:12;7.88;;;5.65;;
75044;SDS011;63614;56.026;35.960;2023-12-22T09:28:39;11.35;;;6.20;;
75044;SDS011;63614;56.026;35.960;2023-12-22T09:31:09;10.23;;;6.23;;
75044;SDS011;63614;56.026;35.960;2023-12-22T09:33:35;8.68;;;6.13;;
75044;SDS011;63614;56.026;35.960;2023-12-22T09:36:01;8.32;;;5.90;;
75044;SDS011;63614;56.026;35.960;2023-12-22T09:38:28;9.63;;;6.45;;
75044;SDS011;63614;56.026;35.960;2023-12-22T09:40:55;9.02;;;6.03;;
75044;SDS011;63614;56.026;35.960;2023-12-22T09:43:22;9.83;;;6.00;;
75044;SDS011;63614;56.026;35.960;2023-12-22T09:45:50;8.75;;;5.10;;
75044;SDS011;63614;56.026;35.960;2023-12-22T09:48:18;11.40;;;6.43;;
75044;SDS011;63614;56.026;35.960;2023-12-22T09:50:46;8.10;;;5.60;;
75044;SDS011;63614;56.026;35.960;2023-12-22T09:53:13;9.35;;;5.72;;
75044;SDS011;63614;56.026;35.960;2023-12-22T09:55:43;10.73;;;6.63;;
75044;SDS011;63614;56.026;35.960;2023-12-22T09:58:12;8.82;;;5.97;;
75044;SDS011;63614;56.026;35.960;2023-12-22T10:00:40;9.00;;;6.22;;
75044;SDS011;63614;56.026;35.960;2023-12-22T10:03:07;9.90;;;6.32;;
75044;SDS011;63614;56.026;35.960;2023-12-22T10:05:34;9.90;;;6.25;;
75044;SDS011;63614;56.026;35.960;2023-12-22T10:08:00;9.90;;;7.00;;
75044;SDS011;63614;56.026;35.960;2023-12-22T10:10:28;9.27;;;6.35;;
75044;SDS011;63614;56.026;35.960;2023-12-22T10:12:57;9.98;;;6.03;;
75044;SDS011;63614;56.026;35.960;2023-12-22T10:17:51;11.27;;;5.60;;
75044;SDS011;63614;56.026;35.960;2023-12-22T10:20:19;8.73;;;5.30;;
75044;SDS011;63614;56.026;35.960;2023-12-22T10:22:45;9.65;;;6.07;;
75044;SDS011;63614;56.026;35.960;2023-12-22T10:25:14;11.70;;;5.77;;
75044;SDS011;63614;56.026;35.960;2023-12-22T10:27:46;8.80;;;6.03;;
75044;SDS011;63614;56.026;35.960;2023-12-22T10:30:12;11.10;;;5.82;;
75044;SDS011;63614;56.026;35.960;2023-12-22T10:32:40;8.85;;;5.95;;
75044;SDS011;63614;56.026;35.960;2023-12-22T10:35:09;9.48;;;6.07;;
75044;SDS011;63614;56.026;35.960;2023-12-22T10:37:35;8.88;;;5.93;;
75044;SDS011;63614;56.026;35.960;2023-12-22T10:40:05;10.55;;;6.45;;
75044;SDS011;63614;56.026;35.960;2023-12-22T10:42:31;10.38;;;6.03;;
75044;SDS011;63614;56.026;35.960;2023-12-22T10:44:58;10.93;;;5.88;;
75044;SDS011;63614;56.026;35.960;2023-12-22T10:47:24;9.40;;;5.82;;
75044;SDS011;63614;56.026;35.960;2023-12-22T10:49:50;8.38;;;5.50;;
75044;SDS011;63614;56.026;35.960;2023-12-22T10:52:17;12.40;;;5.80;;
75044;SDS011;63614;56.026;35.960;2023-12-22T10:54:43;10.93;;;6.13;;
75044;SDS011;63614;56.026;35.960;2023-12-22T10:57:10;15.10;;;8.25;;
75044;SDS011;63614;56.026;35.960;2023-12-22T10:59:38;10.63;;;6.05;;
75044;SDS011;63614;56.026;35.960;2023-12-22T11:02:12;13.05;;;8.10;;
75044;SDS011;63614;56.026;35.960;2023-12-22T11:04:42;10.82;;;6.50;;
75044;SDS011;63614;56.026;35.960;2023-12-22T11:07:17;11.52;;;6.20;;
75044;SDS011;63614;56.026;35.960;2023-12-22T11:09:48;11.32;;;6.53;;
75044;SDS011;63614;56.026;35.960;2023-12-22T11:12:18;8.55;;;5.68;;
75044;SDS011;63614;56.026;35.960;2023-12-22T11:14:45;14.50;;;6.13;;
75044;SDS011;63614;56.026;35.960;2023-12-22T11:17:24;11.15;;;6.47;;
75044;SDS011;63614;56.026;35.960;2023-12-22T11:19:54;11.68;;;7.18;;
75044;SDS011;63614;56.026;35.960;2023-12-22T11:22:22;12.80;;;7.38;;
75044;SDS011;63614;56.026;35.960;2023-12-22T11:24:48;11.68;;;7.38;;
75044;SDS011;63614;56.026;35.960;2023-12-22T11:27:18;10.43;;;5.88;;
75044;SDS011;63614;56.026;35.960;2023-12-22T11:29:45;11.88;;;7.57;;
75044;SDS011;63614;56.026;35.960;2023-12-22T11:32:14;10.60;;;6.90;;
75044;SDS011;63614;56.026;35.960;2023-12-22T11:34:42;11.55;;;7.07;;
75044;SDS011;63614;56.026;35.960;2023-12-22T11:37:11;11.80;;;7.07;;
75044;SDS011;63614;56.026;35.960;2023-12-22T11:39:39;16.70;;;7.05;;
75044;SDS011;63614;56.026;35.960;2023-12-22T11:42:07;12.05;;;6.70;;
75044;SDS011;63614;56.026;35.960;2023-12-22T11:44:36;10.68;;;6.20;;
75044;SDS011;63614;56.026;35.960;2023-12-22T11:47:06;11.25;;;6.90;;
75044;SDS011;63614;56.026;35.960;2023-12-22T11:49:34;12.38;;;6.97;;
75044;SDS011;63614;56.026;35.960;2023-12-22T11:52:09;11.90;;;6.53;;
75044;SDS011;63614;56.026;35.960;2023-12-22T11:54:45;11.15;;;6.47;;
75044;SDS011;63614;56.026;35.960;2023-12-22T11:59:54;11.60;;;6.20;;
75044;SDS011;63614;56.026;35.960;2023-12-22T12:02:21;11.20;;;6.25;;
75044;SDS011;63614;56.026;35.960;2023-12-22T12:04:47;12.05;;;5.20;;
75044;SDS011;63614;56.026;35.960;2023-12-22T12:10:04;10.43;;;5.85;;
75044;SDS011;63614;56.026;35.960;2023-12-22T12:12:30;11.60;;;6.00;;
75044;SDS011;63614;56.026;35.960;2023-12-22T12:14:57;9.87;;;5.70;;
75044;SDS011;63614;56.026;35.960;2023-12-22T12:17:32;10.77;;;6.40;;
75044;SDS011;63614;56.026;35.960;2023-12-22T12:19:58;11.25;;;6.97;;
75044;SDS011;63614;56.026;35.960;2023-12-22T12:22:25;8.63;;;5.88;;
75044;SDS011;63614;56.026;35.960;2023-12-22T12:24:52;10.05;;;5.90;;
75044;SDS011;63614;56.026;35.960;2023-12-22T12:27:19;10.13;;;6.20;;
75044;SDS011;63614;56.026;35.960;2023-12-22T12:29:45;10.65;;;6.65;;
75044;SDS011;63614;56.026;35.960;2023-12-22T12:32:13;11.93;;;6.53;;
75044;SDS011;63614;56.026;35.960;2023-12-22T12:34:42;10.70;;;6.38;;
75044;SDS011;63614;56.026;35.960;2023-12-22T12:37:09;11.68;;;7.07;;
75044;SDS011;63614;56.026;35.960;2023-12-22T12:39:35;10.93;;;6.30;;
75044;SDS011;63614;56.026;35.960;2023-12-22T12:42:05;10.50;;;6.72;;
75044;SDS011;63614;56.026;35.960;2023-12-22T12:44:33;11.63;;;6.45;;
75044;SDS011;63614;56.026;35.960;2023-12-22T12:47:10;11.07;;;6.78;;
75044;SDS011;63614;56.026;35.960;2023-12-22T12:49:37;13.10;;;6.68;;
75044;SDS011;63614;56.026;35.960;2023-12-22T12:52:03;11.63;;;6.32;;
75044;SDS011;63614;56.026;35.960;2023-12-22T12:54:29;12.00;;;5.95;;
75044;SDS011;63614;56.026;35.960;2023-12-22T12:56:57;10.13;;;6.78;;
75044;SDS011;63614;56.026;35.960;2023-12-22T12:59:22;12.00;;;6.53;;
75044;SDS011;63614;56.026;35.960;2023-12-22T13:01:49;12.00;;;6.30;;
75044;SDS011;63614;56.026;35.960;2023-12-22T13:04:15;12.57;;;6.68;;
75044;SDS011;63614;56.026;35.960;2023-12-22T13:06:45;11.30;;;7.10;;
75044;SDS011;63614;56.026;35.960;2023-12-22T13:09:17;11.30;;;6.50;;
75044;SDS011;63614;56.026;35.960;2023-12-22T13:11:44;11.80;;;6.50;;
75044;SDS011;63614;56.026;35.960;2023-12-22T13:14:22;11.02;;;7.13;;
75044;SDS011;63614;56.026;35.960;2023-12-22T13:16:57;13.38;;;7.10;;
75044;SDS011;63614;56.026;35.960;2023-12-22T13:19:24;12.82;;;6.32;;
75044;SDS011;63614;56.026;35.960;2023-12-22T13:21:55;11.48;;;7.03;;
75044;SDS011;63614;56.026;35.960;2023-12-22T13:24:22;10.57;;;6.90;;
75044;SDS011;63614;56.026;35.960;2023-12-22T13:27:02;14.40;;;6.38;;
75044;SDS011;63614;56.026;35.960;2023-12-22T13:29:42;10.52;;;6.22;;
75044;SDS011;63614;56.026;35.960;2023-12-22T13:32:14;10.30;;;6.57;;
75044;SDS011;63614;56.026;35.960;2023-12-22T13:34:46;12.32;;;6.70;;
75044;SDS011;63614;56.026;35.960;2023-12-22T13:37:16;11.43;;;6.72;;
75044;SDS011;63614;56.026;35.960;2023-12-22T13:39:42;9.82;;;5.80;;
75044;SDS011;63614;56.026;35.960;2023-12-22T13:42:17;10.90;;;6.70;;
75044;SDS011;63614;56.026;35.960;2023-12-22T13:44:47;9.10;;;6.32;;
75044;SDS011;63614;56.026;35.960;2023-12-22T13:47:16;9.65;;;6.18;;
75044;SDS011;63614;56.026;35.960;2023-12-22T13:49:42;10.43;;;6.43;;
75044;SDS011;63614;56.026;35.960;2023-12-22T13:52:32;10.98;;;6.22;;
75044;SDS011;63614;56.026;35.960;2023-12-22T13:55:01;12.43;;;6.88;;
75044;SDS011;63614;56.026;35.960;2023-12-22T13:57:30;17.67;;;6.97;;
75044;SDS011;63614;56.026;35.960;2023-12-22T13:59:56;10.32;;;5.75;;
75044;SDS011;63614;56.026;35.960;2023-12-22T14:02:22;12.82;;;7.30;;
75044;SDS011;63614;56.026;35.960;2023-12-22T14:04:51;11.48;;;7.20;;
75044;SDS011;63614;56.026;35.960;2023-12-22T14:07:17;12.45;;;6.78;;
75044;SDS011;63614;56.026;35.960;2023-12-22T14:09:43;11.68;;;6.60;;
75044;SDS011;63614;56.026;35.960;2023-12-22T14:12:09;13.63;;;6.95;;
75044;SDS011;63614;56.026;35.960;2023-12-22T14:14:35;13.20;;;6.80;;
75044;SDS011;63614;56.026;35.960;2023-12-22T14:17:00;10.95;;;6.72;;
75044;SDS011;63614;56.026;35.960;2023-12-22T14:19:26;10.13;;;6.50;;
75044;SDS011;63614;56.026;35.960;2023-12-22T14:21:52;12.68;;;6.57;;
75044;SDS011;63614;56.026;35.960;2023-12-22T14:24:18;10.52;;;6.25;;
75044;SDS011;63614;56.026;35.960;2023-12-22T14:26:53;12.30;;;7.07;;
75044;SDS011;63614;56.026;35.960;2023-12-22T14:29:20;8.85;;;5.78;;
75044;SDS011;63614;56.026;35.960;2023-12-22T14:36:43;12.05;;;7.00;;
75044;SDS011;63614;56.026;35.960;2023-12-22T14:39:10;10.45;;;6.65;;
75044;SDS011;63614;56.026;35.960;2023-12-22T14:41:42;10.93;;;6.38;;
75044;SDS011;63614;56.026;35.960;2023-12-22T14:44:08;12.80;;;6.97;;
75044;SDS011;63614;56.026;35.960;2023-12-22T14:46:38;13.73;;;7.07;;
75044;SDS011;63614;56.026;35.960;2023-12-22T14:49:05;10.13;;;6.10;;